METAR AND TAF INFORMATION
METAR FOR MMUN
ADDS - METARS form results

(1935 UTC 26 April 2018)
Data provider http://aviationweather.gov/adds/metars/
 
METAR text: MMUN 261849Z 14016KT 7SM BKN015TCU 29/23 A2989 RMK 8/200 SC CI
Conditions at: MMUN (CANCUN , MX) observed 1849 UTC 26 April 2018
Temperature: 29.0°C (84°F)
Dewpoint: 23.0°C (73°F) [RH = 70%]
Pressure (altimeter): 29.89 inches Hg (1012.3 mb)
Winds: from the SE (140 degrees) at 18 MPH (16 knots; 8.3 m/s)
Visibility: 7 miles (11 km)
Ceiling: 1500 feet AGL
Clouds: broken clouds at 1500 feet AGL
Weather: no significant weather observed at this time

Forecast for: MMUN (CANCUN , MX)
Text: TAF MMUN 261705Z 2618/2724 14015KT P6SM BKN015 TX31/2620Z TN23/2712Z
Forecast period: 1800 UTC 26 April 2018 to 0100 UTC 27 April 2018
Forecast type: FROM: standard forecast or significant change
Winds: from the SE (140 degrees) at 17 MPH (15 knots; 7.8 m/s)
Visibility: 6 or more miles (10+ km)
Ceiling: 1500 feet AGL
Clouds: broken clouds at 1500 feet AGL
Weather: no significant weather forecast for this period
Forecast for: MMUN (CANCUN , MX)
Text: TAF MMUN 261705Z 2618/2724 14015KT P6SM BKN015 TX31/2620Z TN23/2712Z
Forecast period: 1800 UTC 26 April 2018 to 0100 UTC 27 April 2018
Forecast type: FROM: standard forecast or significant change
Winds: from the SE (140 degrees) at 17 MPH (15 knots; 7.8 m/s)
Visibility: 6 or more miles (10+ km)
Ceiling: 1500 feet AGL
Clouds: broken clouds at 1500 feet AGL
Weather: no significant weather forecast for this period
Forecast for: MMUN (CANCUN , MX)
Text: TAF MMUN 261705Z 2618/2724 14015KT P6SM BKN015 TX31/2620Z TN23/2712Z
Forecast period: 2000 UTC 26 April 2018 to 0000 UTC 27 April 2018
Forecast type: TEMPORARY: The following changes expected for less than half the time period
Visibility: 3 miles (5 km)
Ceiling: 1000 feet AGL
Clouds: broken clouds at 1000 feet AGL
Weather: RA  (rain)
Forecast for: MMUN (CANCUN , MX)
Text: TAF MMUN 261705Z 2618/2724 14015KT P6SM BKN015 TX31/2620Z TN23/2712Z
Forecast period: 2000 UTC 26 April 2018 to 0000 UTC 27 April 2018
Forecast type: TEMPORARY: The following changes expected for less than half the time period
Visibility: 3 miles (5 km)
Ceiling: 1000 feet AGL
Clouds: broken clouds at 1000 feet AGL
Weather: RA  (rain)
Forecast for: MMUN (CANCUN , MX)
Text: TAF MMUN 261705Z 2618/2724 14015KT P6SM BKN015 TX31/2620Z TN23/2712Z
Forecast period: 0100 to 1500 UTC 27 April 2018
Forecast type: FROM: standard forecast or significant change
Winds: from the ESE (120 degrees) at 14 MPH (12 knots; 6.2 m/s)
Visibility: 6 or more miles (10+ km)
Ceiling: 20000 feet AGL
Clouds: scattered clouds at 1500 feet AGL
broken clouds at 20000 feet AGL
Weather: no significant weather forecast for this period
Forecast for: MMUN (CANCUN , MX)
Text: TAF MMUN 261705Z 2618/2724 14015KT P6SM BKN015 TX31/2620Z TN23/2712Z
Forecast period: 0100 to 1500 UTC 27 April 2018
Forecast type: FROM: standard forecast or significant change
Winds: from the ESE (120 degrees) at 14 MPH (12 knots; 6.2 m/s)
Visibility: 6 or more miles (10+ km)
Ceiling: 20000 feet AGL
Clouds: scattered clouds at 1500 feet AGL
broken clouds at 20000 feet AGL
Weather: no significant weather forecast for this period
Forecast for: MMUN (CANCUN , MX)
Text: TAF MMUN 261705Z 2618/2724 14015KT P6SM BKN015 TX31/2620Z TN23/2712Z
Forecast period: 1500 UTC 27 April 2018 to 0000 UTC 28 April 2018
Forecast type: FROM: standard forecast or significant change
Winds: from the NNW (340 degrees) at 14 MPH (12 knots; 6.2 m/s)
Visibility: 6 or more miles (10+ km)
Ceiling: 2000 feet AGL
Clouds: broken clouds at 2000 feet AGL
broken clouds at 8000 feet AGL
Weather: no significant weather forecast for this period
Forecast for: MMUN (CANCUN , MX)
Text: TAF MMUN 261705Z 2618/2724 14015KT P6SM BKN015 TX31/2620Z TN23/2712Z
Forecast period: 1500 UTC 27 April 2018 to 0000 UTC 28 April 2018
Forecast type: FROM: standard forecast or significant change
Winds: from the NNW (340 degrees) at 14 MPH (12 knots; 6.2 m/s)
Visibility: 6 or more miles (10+ km)
Ceiling: 2000 feet AGL
Clouds: broken clouds at 2000 feet AGL
broken clouds at 8000 feet AGL
Weather: no significant weather forecast for this period
Forecast for: MMUN (CANCUN , MX)
Text: TAF MMUN 261705Z 2618/2724 14015KT P6SM BKN015 TX31/2620Z TN23/2712Z
Forecast period: 1600 to 2000 UTC 27 April 2018
Forecast type: PROBABLE: 40 percent likelihood of the following during this time
Visibility: 5 miles (8 km)
Weather: RA  (rain)
Forecast for: MMUN (CANCUN , MX)
Text: TAF MMUN 261705Z 2618/2724 14015KT P6SM BKN015 TX31/2620Z TN23/2712Z
Forecast period: 1600 to 2000 UTC 27 April 2018
Forecast type: PROBABLE: 40 percent likelihood of the following during this time
Visibility: 5 miles (8 km)
Weather: RA  (rain)

 AIRPORT MAP

 RUNWAY INFORMATION
Runway 12L Runway length 9186 ft Runway width 148 ft
Runway elevation 22 ft Runway displaced threshold 0 ft Runway heading 124
Runway 30R Runway length 9186 ft Runway width 148 ft
Runway elevation 18 ft Runway displaced threshold 0 ft Runway heading 304
Runway 12R Runway length 11483 ft Runway width 197 ft
Runway elevation 20 ft Runway displaced threshold 0 ft Runway heading 124
Runway 30L Runway length 11483 ft Runway width 197 ft
Runway elevation 18 ft Runway displaced threshold 0 ft Runway heading 304

 AIRPORT FREQUENCIES
Type APP Name APP Frequency 120.4 MHZ
Type ARR Name ARR Frequency 120.4 MHZ
Type ATIS Name ATIS Frequency 127.7 MHZ
Type CLD Name CLNC DEL Frequency 122.1 MHZ
Type DEP Name DEP Frequency 119.8 MHZ
Type GND Name GND Frequency 121.7 MHZ
Type TWR Name TWR Frequency 118.6 MHZ

 AIRPORT NEAR NAVIGATION AIDS
Type VOR-DME Name Cancun Frequency 113600 KHZ



v2.6.1